Wilson Valencia — V2FN6 — position and weather

sailwx.info

Track history (hours):
 
Tides and Currents Weather Stations Pressure Air Temp Water Temp Dewpoint Dewpoint Depression Visibility Wind Speed Wind Dir Waves Ship Positions

Wilson Valencia

Last reported at 2018-Jun-16 08:34 UTC. Time now 2018-Jun-20 14:55 UTC.
Position N 67°58' E 012°16'.

Length 114 m; draft 6.3 m.

Type: Cargo ship. MMSI: 305733000.

Date/timePositionNaut miles runAvg speedWind from/ knotsBaromVisibWave heightAir tempDewpointWater temp
2018-Jun-16 08:34N 67°58' E 012°16'0 4.6
2018-Jun-16 08:30N 67°58' E 012°17'2 4.9
2018-Jun-16 08:00N 67°60' E 012°21'2 4.3
2018-Jun-16 07:30N 68°01' E 012°25'2 4.3
2018-Jun-16 06:59N 68°03' E 012°29'2 4.1
2018-Jun-16 06:30N 68°04' E 012°33'2 4.2
2018-Jun-16 06:00N 68°06' E 012°37'2 4.1
2018-Jun-16 05:29N 68°07' E 012°41'2 4.0
2018-Jun-16 04:59N 68°09' E 012°44'2 4.2
2018-Jun-16 04:30N 68°11' E 012°47'2 3.6
2018-Jun-16 04:00N 68°12' E 012°51'2 3.7
2018-Jun-16 03:30N 68°13' E 012°54'2 3.9
2018-Jun-16 03:00N 68°15' E 012°58'2 3.8
2018-Jun-16 02:30N 68°16' E 013°01'2 3.9
2018-Jun-16 02:00N 68°18' E 013°04'2 4.0
2018-Jun-16 01:30N 68°19' E 013°07'2 4.1
2018-Jun-16 01:00N 68°21' E 013°11'2 3.6
2018-Jun-16 00:30N 68°22' E 013°14'2 3.8
2018-Jun-15 23:59N 68°24' E 013°17'2 3.8
2018-Jun-15 23:29N 68°25' E 013°21'2 4.2
2018-Jun-15 23:00N 68°27' E 013°25'2 4.5
2018-Jun-15 22:30N 68°28' E 013°28'2 4.7
2018-Jun-15 21:59N 68°30' E 013°33'2 4.4
2018-Jun-15 21:30N 68°32' E 013°37'2 4.5
2018-Jun-15 20:59N 68°34' E 013°41'2 4.9
2018-Jun-15 20:30N 68°35' E 013°45'3 5.0
2018-Jun-15 20:00N 68°37' E 013°49'2 4.7
2018-Jun-15 19:29N 68°39' E 013°53'2 4.6
2018-Jun-15 19:00N 68°41' E 013°57'2 4.7
2018-Jun-15 18:29N 68°43' E 014°02'2 4.5
2018-Jun-15 17:59N 68°44' E 014°06'2 4.7
2018-Jun-15 17:30N 68°46' E 014°10'2 4.9
2018-Jun-15 17:00N 68°48' E 014°15'2 4.6
2018-Jun-15 16:30N 68°50' E 014°19'2 4.7
2018-Jun-15 16:00N 68°52' E 014°23'3 5.3
2018-Jun-15 15:30N 68°54' E 014°27'3 5.4
2018-Jun-15 15:00N 68°56' E 014°32'3 5.7
2018-Jun-15 14:30N 68°58' E 014°37'3 6.8
2018-Jun-15 14:00N 69°00' E 014°44'4 7.4
2018-Jun-15 13:30N 69°03' E 014°50'4 8.4
2018-Jun-15 13:00N 69°06' E 014°58'4 8.1
2018-Jun-15 12:30N 69°09' E 015°07'4 8.3
2018-Jun-15 12:00N 69°12' E 015°16'4 8.5
2018-Jun-15 11:30N 69°14' E 015°25'4 8.7
2018-Jun-15 11:00N 69°17' E 015°35'5 9.0
2018-Jun-15 10:30N 69°20' E 015°44'5 9.4
2018-Jun-15 10:00N 69°23' E 015°55'5 9.4
2018-Jun-15 09:30N 69°26' E 016°05'510.2
2018-Jun-15 09:00N 69°30' E 016°15'5 9.8
2018-Jun-15 08:29N 69°33' E 016°26'5 9.6
2018-Jun-15 07:58N 69°36' E 016°37'510.0
2018-Jun-15 07:30N 69°39' E 016°48'5 9.8
2018-Jun-15 07:00N 69°42' E 016°59'510.2
2018-Jun-15 06:30N 69°46' E 017°09'510.7
2018-Jun-15 06:00N 69°50' E 017°20'5 9.8
2018-Jun-15 05:30N 69°53' E 017°29'5 9.8
2018-Jun-15 05:00N 69°57' E 017°39'510.3
2018-Jun-15 04:30N 70°01' E 017°49'510.8
2018-Jun-15 04:00N 70°05' E 017°59'510.9
2018-Jun-15 03:30N 70°09' E 018°10'611.3
2018-Jun-15 03:00N 70°13' E 018°22'610.9
2018-Jun-15 02:29N 70°17' E 018°32'510.8
2018-Jun-15 01:59N 70°21' E 018°43'510.5
2018-Jun-15 01:29N 70°23' E 018°58'510.0
2018-Jun-15 01:00N 70°25' E 019°11'5 9.6
2018-Jun-15 00:29N 70°27' E 019°25'5 9.6
2018-Jun-14 23:59N 70°28' E 019°38'5 9.5
2018-Jun-14 23:30N 70°30' E 019°51'5 9.3
2018-Jun-14 23:00N 70°29' E 020°05'510.0
2018-Jun-14 22:30N 70°28' E 020°19'510.2
2018-Jun-14 21:59N 70°22' E 020°22'511.0
2018-Jun-14 21:30N 70°17' E 020°23'510.7
2018-Jun-14 21:00N 70°12' E 020°20'611.2
2018-Jun-14 20:30N 70°07' E 020°14'5 9.2
2018-Jun-14 19:58N 70°03' E 020°23'611.6
2018-Jun-14 19:30N 70°02' E 020°39'612.2
2018-Jun-14 19:00N 70°04' E 020°54'611.8
2018-Jun-14 18:30N 70°09' E 021°03'611.7
2018-Jun-14 17:59N 70°15' E 021°12'612.0
2018-Jun-14 17:30N 70°18' E 021°25'611.6
2018-Jun-14 17:00N 70°23' E 021°38'5 9.8
2018-Jun-14 16:30N 70°22' E 021°52'612.1
2018-Jun-14 16:00N 70°20' E 022°08'612.4
2018-Jun-14 15:30N 70°17' E 022°25'4 8.1
2018-Jun-14 14:58N 70°16' E 022°37'0 0.1
2018-Jun-14 14:28N 70°16' E 022°37'0 0.0
2018-Jun-14 13:58N 70°16' E 022°37'0 0.0
2018-Jun-14 13:28N 70°16' E 022°37'0 0.0
2018-Jun-14 12:58N 70°16' E 022°37'0 0.0
2018-Jun-14 12:28N 70°16' E 022°37'0 0.0
2018-Jun-14 11:58N 70°16' E 022°37'0 0.0
2018-Jun-14 11:28N 70°16' E 022°37'0 0.0
2018-Jun-14 10:58N 70°16' E 022°37'0 0.0
2018-Jun-14 10:28N 70°16' E 022°37'0 0.0
2018-Jun-14 09:58N 70°16' E 022°37'0 0.0
2018-Jun-14 09:28N 70°16' E 022°37'0 0.0
2018-Jun-14 08:58N 70°16' E 022°37'0 0.0
2018-Jun-14 08:28N 70°16' E 022°37'0 0.1
2018-Jun-14 07:52N 70°16' E 022°37'0 0.0
2018-Jun-14 07:28N 70°16' E 022°37'0 0.0
2018-Jun-14 06:55N 70°16' E 022°37'0 0.0
2018-Jun-14 06:28N 70°16' E 022°37'0 0.0
2018-Jun-14 05:58N 70°16' E 022°37'0 0.0
2018-Jun-14 05:31N 70°16' E 022°37'0 0.1
2018-Jun-14 05:00N 70°16' E 022°37'0 0.0
2018-Jun-14 04:28N 70°16' E 022°37'0 0.0
2018-Jun-14 03:58N 70°16' E 022°37'0 0.0
2018-Jun-14 03:28N 70°16' E 022°37'0 0.0
2018-Jun-14 02:58N 70°16' E 022°37'0 0.0
2018-Jun-14 02:28N 70°16' E 022°37'0 0.0
2018-Jun-14 01:58N 70°16' E 022°37'0 0.0
2018-Jun-14 01:28N 70°16' E 022°37'0 0.0
2018-Jun-14 00:59N 70°16' E 022°37'0 0.0
2018-Jun-14 00:30N 70°16' E 022°37'0 0.0
2018-Jun-14 00:00N 70°16' E 022°37'0 0.0
2018-Jun-13 23:30N 70°16' E 022°37'0 0.0
2018-Jun-13 23:00N 70°16' E 022°37'0 0.0
2018-Jun-13 22:30N 70°16' E 022°37'0 0.0
2018-Jun-13 22:00N 70°16' E 022°37'0 0.0
2018-Jun-13 21:30N 70°16' E 022°37'0 0.0
2018-Jun-13 21:00N 70°16' E 022°37'0 0.0
2018-Jun-13 20:30N 70°16' E 022°37'0 0.2
2018-Jun-13 20:00N 70°16' E 022°37'5 9.0
2018-Jun-13 19:30N 70°17' E 022°24'612.8
2018-Jun-13 19:00N 70°20' E 022°07'612.8
2018-Jun-13 18:30N 70°23' E 021°50'510.2
2018-Jun-13 18:00N 70°22' E 021°35'612.9
2018-Jun-13 17:30N 70°17' E 021°22'712.7
2018-Jun-13 16:59N 70°13' E 021°07'612.6
2018-Jun-13 16:30N 70°07' E 020°59'612.2
2018-Jun-13 16:00N 70°03' E 020°47'612.9
2018-Jun-13 15:30N 70°02' E 020°29'612.3
2018-Jun-13 15:00N 70°06' E 020°14'4 8.8
2018-Jun-13 14:30N 70°10' E 020°18'5 9.4
2018-Jun-13 14:00N 70°14' E 020°22'5 9.2
2018-Jun-13 13:30N 70°19' E 020°23'5 9.3
2018-Jun-13 13:00N 70°24' E 020°22'5 9.3
2018-Jun-13 12:30N 70°28' E 020°17'611.3
2018-Jun-13 12:00N 70°30' E 020°01'510.5
2018-Jun-13 11:30N 70°29' E 019°45'611.4
2018-Jun-13 10:59N 70°27' E 019°29'611.5
2018-Jun-13 10:30N 70°25' E 019°14'611.7
2018-Jun-13 10:00N 70°23' E 018°58'611.7
2018-Jun-13 09:30N 70°21' E 018°42'611.6
2018-Jun-13 09:00N 70°16' E 018°30'611.6
2018-Jun-13 08:30N 70°12' E 018°18'611.5
2018-Jun-13 08:00N 70°08' E 018°07'611.6
2018-Jun-13 07:30N 70°04' E 017°56'611.6
2018-Jun-13 07:00N 69°59' E 017°44'611.8
2018-Jun-13 06:30N 69°55' E 017°33'611.8
2018-Jun-13 06:00N 69°50' E 017°22'612.6
2018-Jun-13 05:30N 69°46' E 017°09'712.8
2018-Jun-13 04:58N 69°41' E 016°55'612.7
2018-Jun-13 04:30N 69°37' E 016°43'712.9
2018-Jun-13 04:00N 69°33' E 016°28'612.9
2018-Jun-13 03:30N 69°29' E 016°14'712.8
2018-Jun-13 02:58N 69°24' E 015°59'612.7
2018-Jun-13 02:30N 69°21' E 015°46'612.2
2018-Jun-13 01:59N 69°17' E 015°33'612.4
2018-Jun-13 01:30N 69°13' E 015°20'612.5
2018-Jun-13 01:00N 69°09' E 015°06'612.3
2018-Jun-13 00:29N 69°04' E 014°53'612.2
2018-Jun-12 23:59N 68°60' E 014°42'612.2
2018-Jun-12 23:30N 68°55' E 014°31'612.4
2018-Jun-12 23:00N 68°51' E 014°20'612.4
2018-Jun-12 22:30N 68°46' E 014°09'612.2
2018-Jun-12 22:00N 68°41' E 013°58'612.0
2018-Jun-12 21:30N 68°37' E 013°47'611.7
2018-Jun-12 21:00N 68°32' E 013°37'611.6
2018-Jun-12 20:30N 68°28' E 013°27'611.8
2018-Jun-12 20:00N 68°23' E 013°16'612.2
2018-Jun-12 19:30N 68°18' E 013°06'612.2
2018-Jun-12 19:00N 68°14' E 012°55'612.2
2018-Jun-12 18:30N 68°09' E 012°46'612.1
2018-Jun-12 18:00N 68°04' E 012°37'612.2
2018-Jun-12 17:30N 67°58' E 012°29'612.1
2018-Jun-12 17:00N 67°53' E 012°20'6911.2
2018-Jun-12 10:50N 66°46' E 011°45'412.1
2018-Jun-12 10:30N 66°42' E 011°46'612.1
2018-Jun-12 10:00N 66°36' E 011°47'612.0
2018-Jun-12 09:30N 66°30' E 011°49'611.6
2018-Jun-12 09:00N 66°24' E 011°51'612.1
2018-Jun-12 08:30N 66°20' E 012°03'611.7
2018-Jun-12 08:00N 66°17' E 012°15'611.7
2018-Jun-12 07:30N 66°15' E 012°29'510.6
2018-Jun-12 07:00N 66°13' E 012°41'612.2
2018-Jun-12 06:30N 66°09' E 012°53'612.8
2018-Jun-12 06:00N 66°11' E 013°09'612.6
2018-Jun-12 05:30N 66°14' E 013°22'612.4
2018-Jun-12 05:00N 66°14' E 013°37'613.1
2018-Jun-12 04:30N 66°16' E 013°53'612.0
2018-Jun-12 04:00N 66°19' E 014°07'0 0.4
2018-Jun-12 03:28N 66°18' E 014°07'0 0.0
2018-Jun-12 02:58N 66°18' E 014°07'0 0.0
2018-Jun-12 02:28N 66°18' E 014°07'0 0.0
2018-Jun-12 01:55N 66°18' E 014°07'0 0.0
2018-Jun-12 01:28N 66°18' E 014°07'0 0.0
2018-Jun-12 00:58N 66°18' E 014°07'0 0.0
2018-Jun-12 00:28N 66°18' E 014°07'0 0.0
2018-Jun-11 23:58N 66°18' E 014°07'0 0.0
2018-Jun-11 23:28N 66°18' E 014°07'0 0.0
2018-Jun-11 22:58N 66°18' E 014°07'0 0.0
2018-Jun-11 22:28N 66°18' E 014°07'0 0.0
2018-Jun-11 21:58N 66°18' E 014°07'0 0.0
2018-Jun-11 21:28N 66°18' E 014°07'0 0.0
2018-Jun-11 20:58N 66°18' E 014°07'0 0.0
2018-Jun-11 20:28N 66°18' E 014°07'0 0.0
2018-Jun-11 19:58N 66°18' E 014°07'0 0.0
2018-Jun-11 19:28N 66°18' E 014°07'0 0.0
2018-Jun-11 18:58N 66°18' E 014°07'0 0.0
2018-Jun-11 18:28N 66°18' E 014°07'0 0.0
2018-Jun-11 17:58N 66°18' E 014°07'0 0.0
2018-Jun-11 17:28N 66°18' E 014°07'0 0.0
2018-Jun-11 16:58N 66°18' E 014°07'0 0.0
2018-Jun-11 16:28N 66°18' E 014°07'0 0.0
2018-Jun-11 15:58N 66°18' E 014°07'0 0.0
2018-Jun-11 15:28N 66°18' E 014°07'0 0.0
2018-Jun-11 14:58N 66°18' E 014°07'0 0.0
2018-Jun-11 14:28N 66°18' E 014°07'0 0.0
2018-Jun-11 13:58N 66°18' E 014°07'0 0.0
2018-Jun-11 13:25N 66°18' E 014°07'0 0.0
2018-Jun-11 12:58N 66°18' E 014°07'0 0.0
2018-Jun-11 12:28N 66°18' E 014°07'0 0.0
2018-Jun-11 11:58N 66°18' E 014°07'0 0.0
2018-Jun-11 11:28N 66°18' E 014°07'0 0.0
2018-Jun-11 10:58N 66°18' E 014°07'0 0.0
2018-Jun-11 10:28N 66°18' E 014°07'0 0.0
2018-Jun-11 09:58N 66°18' E 014°07'0 0.0
2018-Jun-11 09:28N 66°18' E 014°07'0 0.0
2018-Jun-11 08:58N 66°18' E 014°07'0 0.0
2018-Jun-11 08:28N 66°18' E 014°07'0 0.0
2018-Jun-11 07:58N 66°18' E 014°07'0 0.0
2018-Jun-11 07:28N 66°18' E 014°07'0 0.0
2018-Jun-11 06:58N 66°18' E 014°07'0 0.0
2018-Jun-11 06:28N 66°18' E 014°07'0 0.0
2018-Jun-11 05:58N 66°18' E 014°07'0 0.0
2018-Jun-11 05:28N 66°18' E 014°07'0 0.0
2018-Jun-11 04:58N 66°18' E 014°07'0 0.0
2018-Jun-11 04:25N 66°18' E 014°07'0 0.0
2018-Jun-11 03:55N 66°18' E 014°07'0 0.0
2018-Jun-11 03:28N 66°18' E 014°07'0 0.0
2018-Jun-11 02:58N 66°18' E 014°07'0 0.0
2018-Jun-11 02:28N 66°18' E 014°07'0 0.0
2018-Jun-11 01:58N 66°18' E 014°07'0 0.0
2018-Jun-11 01:28N 66°18' E 014°07'0 0.0
2018-Jun-11 00:58N 66°18' E 014°07'0 0.0
2018-Jun-10 23:13N 66°18' E 014°07'0 0.0
2018-Jun-10 22:52N 66°18' E 014°07'0 0.0
2018-Jun-10 22:28N 66°18' E 014°07'0 0.0
2018-Jun-10 21:58N 66°18' E 014°07'0 0.0
2018-Jun-10 21:28N 66°18' E 014°07'0 0.0
2018-Jun-10 20:58N 66°18' E 014°07'0 0.0
2018-Jun-10 20:28N 66°18' E 014°07'0 0.0
2018-Jun-10 19:58N 66°18' E 014°07'0 0.0
2018-Jun-10 19:28N 66°18' E 014°07'0 0.0
2018-Jun-10 18:58N 66°18' E 014°07'0 0.0
2018-Jun-10 18:28N 66°18' E 014°07'0 0.0
2018-Jun-10 17:58N 66°18' E 014°07'0 0.0
2018-Jun-10 17:28N 66°18' E 014°07'0 0.0
2018-Jun-10 16:58N 66°18' E 014°07'0 0.0
2018-Jun-10 16:25N 66°18' E 014°07'0 0.0
2018-Jun-10 15:58N 66°18' E 014°07'0 0.0
2018-Jun-10 15:25N 66°18' E 014°07'0 0.0
2018-Jun-10 14:58N 66°18' E 014°07'0 0.0
2018-Jun-10 14:28N 66°18' E 014°07'0 0.0
2018-Jun-10 13:28N 66°18' E 014°07'0 0.0
2018-Jun-10 12:58N 66°18' E 014°07'0 0.0
2018-Jun-10 12:28N 66°18' E 014°07'0 0.0
2018-Jun-10 11:58N 66°18' E 014°07'0 0.0
2018-Jun-10 11:28N 66°18' E 014°07'0 0.0
2018-Jun-10 10:58N 66°18' E 014°07'0 0.0
2018-Jun-10 10:28N 66°18' E 014°07'0 0.0
2018-Jun-10 09:58N 66°18' E 014°07'0 0.0
2018-Jun-10 09:28N 66°18' E 014°07'0 0.0
2018-Jun-10 08:58N 66°18' E 014°07'0 0.0
2018-Jun-10 08:28N 66°18' E 014°07'0 0.0
2018-Jun-10 07:58N 66°18' E 014°07'0 0.0
2018-Jun-10 07:22N 66°18' E 014°07'0 0.0
2018-Jun-10 06:58N 66°18' E 014°07'0 0.0
2018-Jun-10 06:28N 66°18' E 014°07'0 0.0
2018-Jun-10 05:58N 66°18' E 014°07'0 0.0
2018-Jun-10 05:28N 66°18' E 014°07'0 0.0
2018-Jun-10 04:58N 66°18' E 014°07'0 0.0
2018-Jun-10 04:28N 66°18' E 014°07'0 0.0
2018-Jun-10 03:58N 66°18' E 014°07'0 0.0
2018-Jun-10 03:28N 66°18' E 014°07'0 0.0
2018-Jun-10 02:58N 66°18' E 014°07'0 0.0
2018-Jun-10 02:28N 66°18' E 014°07'0 0.0
2018-Jun-10 01:58N 66°18' E 014°07'0 0.0
2018-Jun-10 01:28N 66°18' E 014°07'0 0.0
2018-Jun-10 00:58N 66°18' E 014°07'0 0.0
2018-Jun-10 00:22N 66°18' E 014°07'0 0.0
2018-Jun-09 23:58N 66°18' E 014°07'0 0.0
2018-Jun-09 23:28N 66°18' E 014°07'0 0.0
2018-Jun-09 22:58N 66°18' E 014°07'0 0.0
2018-Jun-09 22:28N 66°18' E 014°07'0 0.0
2018-Jun-09 21:58N 66°18' E 014°07'0 0.0
2018-Jun-09 21:28N 66°18' E 014°07'0 0.0
2018-Jun-09 20:58N 66°18' E 014°07'0 0.0
2018-Jun-09 20:28N 66°18' E 014°07'0 0.0
2018-Jun-09 19:58N 66°18' E 014°07'0 0.0
2018-Jun-09 19:28N 66°18' E 014°07'0 0.0
2018-Jun-09 18:58N 66°18' E 014°07'0 0.0
2018-Jun-09 18:28N 66°18' E 014°07'0 0.0
2018-Jun-09 17:58N 66°18' E 014°07'0 0.0
2018-Jun-09 17:25N 66°18' E 014°07'0 0.0
2018-Jun-09 16:58N 66°18' E 014°07'0 0.0
2018-Jun-09 16:28N 66°18' E 014°07'0 0.0
2018-Jun-09 15:58N 66°18' E 014°07'0 0.0
2018-Jun-09 15:28N 66°18' E 014°07'2 1.9
2018-Jun-09 14:30N 66°18' E 014°03'611.4
2018-Jun-09 14:00N 66°15' E 013°50'611.9
2018-Jun-09 13:29N 66°14' E 013°35'611.5
2018-Jun-09 13:00N 66°14' E 013°21'611.9
2018-Jun-09 12:30N 66°11' E 013°09'611.8
2018-Jun-09 12:00N 66°09' E 012°54'611.3
2018-Jun-09 11:30N 66°12' E 012°43'5 9.5
2018-Jun-09 11:00N 66°15' E 012°34'4 7.7
2018-Jun-09 10:30N 66°15' E 012°24'510.9
2018-Jun-09 10:00N 66°17' E 012°12'611.9
2018-Jun-09 09:30N 66°15' E 011°57'  
2018-Jun-06 19:49N 59°24' W 004°18'  
Track history (hours):
 
Tides and Currents Weather Stations Pressure Air Temp Water Temp Dewpoint Dewpoint Depression Visibility Wind Speed Wind Dir Waves Ship Positions

Wilson Valencia

Last reported at 2018-Jun-16 08:34 UTC. Time now 2018-Jun-20 14:55 UTC.
Position N 67°58' E 012°16'.

Length 114 m; draft 6.3 m.

Type: Cargo ship. MMSI: 305733000.

Date/timePositionNaut miles runAvg speedWind from/ knotsBaromVisibWave heightAir tempDewpointWater temp
2018-Jun-16 08:34N 67°58' E 012°16'0 4.6
2018-Jun-16 08:30N 67°58' E 012°17'2 4.9
2018-Jun-16 08:00N 67°60' E 012°21'2 4.3
2018-Jun-16 07:30N 68°01' E 012°25'2 4.3
2018-Jun-16 06:59N 68°03' E 012°29'2 4.1
2018-Jun-16 06:30N 68°04' E 012°33'2 4.2
2018-Jun-16 06:00N 68°06' E 012°37'2 4.1
2018-Jun-16 05:29N 68°07' E 012°41'2 4.0
2018-Jun-16 04:59N 68°09' E 012°44'2 4.2
2018-Jun-16 04:30N 68°11' E 012°47'2 3.6
2018-Jun-16 04:00N 68°12' E 012°51'2 3.7
2018-Jun-16 03:30N 68°13' E 012°54'2 3.9
2018-Jun-16 03:00N 68°15' E 012°58'2 3.8
2018-Jun-16 02:30N 68°16' E 013°01'2 3.9
2018-Jun-16 02:00N 68°18' E 013°04'2 4.0
2018-Jun-16 01:30N 68°19' E 013°07'2 4.1
2018-Jun-16 01:00N 68°21' E 013°11'2 3.6
2018-Jun-16 00:30N 68°22' E 013°14'2 3.8
2018-Jun-15 23:59N 68°24' E 013°17'2 3.8
2018-Jun-15 23:29N 68°25' E 013°21'2 4.2
2018-Jun-15 23:00N 68°27' E 013°25'2 4.5
2018-Jun-15 22:30N 68°28' E 013°28'2 4.7
2018-Jun-15 21:59N 68°30' E 013°33'2 4.4
2018-Jun-15 21:30N 68°32' E 013°37'2 4.5
2018-Jun-15 20:59N 68°34' E 013°41'2 4.9
2018-Jun-15 20:30N 68°35' E 013°45'3 5.0
2018-Jun-15 20:00N 68°37' E 013°49'2 4.7
2018-Jun-15 19:29N 68°39' E 013°53'2 4.6
2018-Jun-15 19:00N 68°41' E 013°57'2 4.7
2018-Jun-15 18:29N 68°43' E 014°02'2 4.5
2018-Jun-15 17:59N 68°44' E 014°06'2 4.7
2018-Jun-15 17:30N 68°46' E 014°10'2 4.9
2018-Jun-15 17:00N 68°48' E 014°15'2 4.6
2018-Jun-15 16:30N 68°50' E 014°19'2 4.7
2018-Jun-15 16:00N 68°52' E 014°23'3 5.3
2018-Jun-15 15:30N 68°54' E 014°27'3 5.4
2018-Jun-15 15:00N 68°56' E 014°32'3 5.7
2018-Jun-15 14:30N 68°58' E 014°37'3 6.8
2018-Jun-15 14:00N 69°00' E 014°44'4 7.4
2018-Jun-15 13:30N 69°03' E 014°50'4 8.4
2018-Jun-15 13:00N 69°06' E 014°58'4 8.1
2018-Jun-15 12:30N 69°09' E 015°07'4 8.3
2018-Jun-15 12:00N 69°12' E 015°16'4 8.5
2018-Jun-15 11:30N 69°14' E 015°25'4 8.7
2018-Jun-15 11:00N 69°17' E 015°35'5 9.0
2018-Jun-15 10:30N 69°20' E 015°44'5 9.4
2018-Jun-15 10:00N 69°23' E 015°55'5 9.4
2018-Jun-15 09:30N 69°26' E 016°05'510.2
2018-Jun-15 09:00N 69°30' E 016°15'5 9.8
2018-Jun-15 08:29N 69°33' E 016°26'5 9.6
2018-Jun-15 07:58N 69°36' E 016°37'510.0
2018-Jun-15 07:30N 69°39' E 016°48'5 9.8
2018-Jun-15 07:00N 69°42' E 016°59'510.2
2018-Jun-15 06:30N 69°46' E 017°09'510.7
2018-Jun-15 06:00N 69°50' E 017°20'5 9.8
2018-Jun-15 05:30N 69°53' E 017°29'5 9.8
2018-Jun-15 05:00N 69°57' E 017°39'510.3
2018-Jun-15 04:30N 70°01' E 017°49'510.8
2018-Jun-15 04:00N 70°05' E 017°59'510.9
2018-Jun-15 03:30N 70°09' E 018°10'611.3
2018-Jun-15 03:00N 70°13' E 018°22'610.9
2018-Jun-15 02:29N 70°17' E 018°32'510.8
2018-Jun-15 01:59N 70°21' E 018°43'510.5
2018-Jun-15 01:29N 70°23' E 018°58'510.0
2018-Jun-15 01:00N 70°25' E 019°11'5 9.6
2018-Jun-15 00:29N 70°27' E 019°25'5 9.6
2018-Jun-14 23:59N 70°28' E 019°38'5 9.5
2018-Jun-14 23:30N 70°30' E 019°51'5 9.3
2018-Jun-14 23:00N 70°29' E 020°05'510.0
2018-Jun-14 22:30N 70°28' E 020°19'510.2
2018-Jun-14 21:59N 70°22' E 020°22'511.0
2018-Jun-14 21:30N 70°17' E 020°23'510.7
2018-Jun-14 21:00N 70°12' E 020°20'611.2
2018-Jun-14 20:30N 70°07' E 020°14'5 9.2
2018-Jun-14 19:58N 70°03' E 020°23'611.6
2018-Jun-14 19:30N 70°02' E 020°39'612.2
2018-Jun-14 19:00N 70°04' E 020°54'611.8
2018-Jun-14 18:30N 70°09' E 021°03'611.7
2018-Jun-14 17:59N 70°15' E 021°12'612.0
2018-Jun-14 17:30N 70°18' E 021°25'611.6
2018-Jun-14 17:00N 70°23' E 021°38'5 9.8
2018-Jun-14 16:30N 70°22' E 021°52'612.1
2018-Jun-14 16:00N 70°20' E 022°08'612.4
2018-Jun-14 15:30N 70°17' E 022°25'4 8.1
2018-Jun-14 14:58N 70°16' E 022°37'0 0.1
2018-Jun-14 14:28N 70°16' E 022°37'0 0.0
2018-Jun-14 13:58N 70°16' E 022°37'0 0.0
2018-Jun-14 13:28N 70°16' E 022°37'0 0.0
2018-Jun-14 12:58N 70°16' E 022°37'0 0.0
2018-Jun-14 12:28N 70°16' E 022°37'0 0.0
2018-Jun-14 11:58N 70°16' E 022°37'0 0.0
2018-Jun-14 11:28N 70°16' E 022°37'0 0.0
2018-Jun-14 10:58N 70°16' E 022°37'0 0.0
2018-Jun-14 10:28N 70°16' E 022°37'0 0.0
2018-Jun-14 09:58N 70°16' E 022°37'0 0.0
2018-Jun-14 09:28N 70°16' E 022°37'0 0.0
2018-Jun-14 08:58N 70°16' E 022°37'0 0.0
2018-Jun-14 08:28N 70°16' E 022°37'0 0.1
2018-Jun-14 07:52N 70°16' E 022°37'0 0.0
2018-Jun-14 07:28N 70°16' E 022°37'0 0.0
2018-Jun-14 06:55N 70°16' E 022°37'0 0.0
2018-Jun-14 06:28N 70°16' E 022°37'0 0.0
2018-Jun-14 05:58N 70°16' E 022°37'0 0.0
2018-Jun-14 05:31N 70°16' E 022°37'0 0.1
2018-Jun-14 05:00N 70°16' E 022°37'0 0.0
2018-Jun-14 04:28N 70°16' E 022°37'0 0.0
2018-Jun-14 03:58N 70°16' E 022°37'0 0.0
2018-Jun-14 03:28N 70°16' E 022°37'0 0.0
2018-Jun-14 02:58N 70°16' E 022°37'0 0.0
2018-Jun-14 02:28N 70°16' E 022°37'0 0.0
2018-Jun-14 01:58N 70°16' E 022°37'0 0.0
2018-Jun-14 01:28N 70°16' E 022°37'0 0.0
2018-Jun-14 00:59N 70°16' E 022°37'0 0.0
2018-Jun-14 00:30N 70°16' E 022°37'0 0.0
2018-Jun-14 00:00N 70°16' E 022°37'0 0.0
2018-Jun-13 23:30N 70°16' E 022°37'0 0.0
2018-Jun-13 23:00N 70°16' E 022°37'0 0.0
2018-Jun-13 22:30N 70°16' E 022°37'0 0.0
2018-Jun-13 22:00N 70°16' E 022°37'0 0.0
2018-Jun-13 21:30N 70°16' E 022°37'0 0.0
2018-Jun-13 21:00N 70°16' E 022°37'0 0.0
2018-Jun-13 20:30N 70°16' E 022°37'0 0.2
2018-Jun-13 20:00N 70°16' E 022°37'5 9.0
2018-Jun-13 19:30N 70°17' E 022°24'612.8
2018-Jun-13 19:00N 70°20' E 022°07'612.8
2018-Jun-13 18:30N 70°23' E 021°50'510.2
2018-Jun-13 18:00N 70°22' E 021°35'612.9
2018-Jun-13 17:30N 70°17' E 021°22'712.7
2018-Jun-13 16:59N 70°13' E 021°07'612.6
2018-Jun-13 16:30N 70°07' E 020°59'612.2
2018-Jun-13 16:00N 70°03' E 020°47'612.9
2018-Jun-13 15:30N 70°02' E 020°29'612.3
2018-Jun-13 15:00N 70°06' E 020°14'4 8.8
2018-Jun-13 14:30N 70°10' E 020°18'5 9.4
2018-Jun-13 14:00N 70°14' E 020°22'5 9.2
2018-Jun-13 13:30N 70°19' E 020°23'5 9.3
2018-Jun-13 13:00N 70°24' E 020°22'5 9.3
2018-Jun-13 12:30N 70°28' E 020°17'611.3
2018-Jun-13 12:00N 70°30' E 020°01'510.5
2018-Jun-13 11:30N 70°29' E 019°45'611.4
2018-Jun-13 10:59N 70°27' E 019°29'611.5
2018-Jun-13 10:30N 70°25' E 019°14'611.7
2018-Jun-13 10:00N 70°23' E 018°58'611.7
2018-Jun-13 09:30N 70°21' E 018°42'611.6
2018-Jun-13 09:00N 70°16' E 018°30'611.6
2018-Jun-13 08:30N 70°12' E 018°18'611.5
2018-Jun-13 08:00N 70°08' E 018°07'611.6
2018-Jun-13 07:30N 70°04' E 017°56'611.6
2018-Jun-13 07:00N 69°59' E 017°44'611.8
2018-Jun-13 06:30N 69°55' E 017°33'611.8
2018-Jun-13 06:00N 69°50' E 017°22'612.6
2018-Jun-13 05:30N 69°46' E 017°09'712.8
2018-Jun-13 04:58N 69°41' E 016°55'612.7
2018-Jun-13 04:30N 69°37' E 016°43'712.9
2018-Jun-13 04:00N 69°33' E 016°28'612.9
2018-Jun-13 03:30N 69°29' E 016°14'712.8
2018-Jun-13 02:58N 69°24' E 015°59'612.7
2018-Jun-13 02:30N 69°21' E 015°46'612.2
2018-Jun-13 01:59N 69°17' E 015°33'612.4
2018-Jun-13 01:30N 69°13' E 015°20'612.5
2018-Jun-13 01:00N 69°09' E 015°06'612.3
2018-Jun-13 00:29N 69°04' E 014°53'612.2
2018-Jun-12 23:59N 68°60' E 014°42'612.2
2018-Jun-12 23:30N 68°55' E 014°31'612.4
2018-Jun-12 23:00N 68°51' E 014°20'612.4
2018-Jun-12 22:30N 68°46' E 014°09'612.2
2018-Jun-12 22:00N 68°41' E 013°58'612.0
2018-Jun-12 21:30N 68°37' E 013°47'611.7
2018-Jun-12 21:00N 68°32' E 013°37'611.6
2018-Jun-12 20:30N 68°28' E 013°27'611.8
2018-Jun-12 20:00N 68°23' E 013°16'612.2
2018-Jun-12 19:30N 68°18' E 013°06'612.2
2018-Jun-12 19:00N 68°14' E 012°55'612.2
2018-Jun-12 18:30N 68°09' E 012°46'612.1
2018-Jun-12 18:00N 68°04' E 012°37'612.2
2018-Jun-12 17:30N 67°58' E 012°29'612.1
2018-Jun-12 17:00N 67°53' E 012°20'6911.2
2018-Jun-12 10:50N 66°46' E 011°45'412.1
2018-Jun-12 10:30N 66°42' E 011°46'612.1
2018-Jun-12 10:00N 66°36' E 011°47'612.0
2018-Jun-12 09:30N 66°30' E 011°49'611.6
2018-Jun-12 09:00N 66°24' E 011°51'612.1
2018-Jun-12 08:30N 66°20' E 012°03'611.7
2018-Jun-12 08:00N 66°17' E 012°15'611.7
2018-Jun-12 07:30N 66°15' E 012°29'510.6
2018-Jun-12 07:00N 66°13' E 012°41'612.2
2018-Jun-12 06:30N 66°09' E 012°53'612.8
2018-Jun-12 06:00N 66°11' E 013°09'612.6
2018-Jun-12 05:30N 66°14' E 013°22'612.4
2018-Jun-12 05:00N 66°14' E 013°37'613.1
2018-Jun-12 04:30N 66°16' E 013°53'612.0
2018-Jun-12 04:00N 66°19' E 014°07'0 0.4
2018-Jun-12 03:28N 66°18' E 014°07'0 0.0
2018-Jun-12 02:58N 66°18' E 014°07'0 0.0
2018-Jun-12 02:28N 66°18' E 014°07'0 0.0
2018-Jun-12 01:55N 66°18' E 014°07'0 0.0
2018-Jun-12 01:28N 66°18' E 014°07'0 0.0
2018-Jun-12 00:58N 66°18' E 014°07'0 0.0
2018-Jun-12 00:28N 66°18' E 014°07'0 0.0
2018-Jun-11 23:58N 66°18' E 014°07'0 0.0
2018-Jun-11 23:28N 66°18' E 014°07'0 0.0
2018-Jun-11 22:58N 66°18' E 014°07'0 0.0
2018-Jun-11 22:28N 66°18' E 014°07'0 0.0
2018-Jun-11 21:58N 66°18' E 014°07'0 0.0
2018-Jun-11 21:28N 66°18' E 014°07'0 0.0
2018-Jun-11 20:58N 66°18' E 014°07'0 0.0
2018-Jun-11 20:28N 66°18' E 014°07'0 0.0
2018-Jun-11 19:58N 66°18' E 014°07'0 0.0
2018-Jun-11 19:28N 66°18' E 014°07'0 0.0
2018-Jun-11 18:58N 66°18' E 014°07'0 0.0
2018-Jun-11 18:28N 66°18' E 014°07'0 0.0
2018-Jun-11 17:58N 66°18' E 014°07'0 0.0
2018-Jun-11 17:28N 66°18' E 014°07'0 0.0
2018-Jun-11 16:58N 66°18' E 014°07'0 0.0
2018-Jun-11 16:28N 66°18' E 014°07'0 0.0
2018-Jun-11 15:58N 66°18' E 014°07'0 0.0
2018-Jun-11 15:28N 66°18' E 014°07'0 0.0
2018-Jun-11 14:58N 66°18' E 014°07'0 0.0
2018-Jun-11 14:28N 66°18' E 014°07'0 0.0
2018-Jun-11 13:58N 66°18' E 014°07'0 0.0
2018-Jun-11 13:25N 66°18' E 014°07'0 0.0
2018-Jun-11 12:58N 66°18' E 014°07'0 0.0
2018-Jun-11 12:28N 66°18' E 014°07'0 0.0
2018-Jun-11 11:58N 66°18' E 014°07'0 0.0
2018-Jun-11 11:28N 66°18' E 014°07'0 0.0
2018-Jun-11 10:58N 66°18' E 014°07'0 0.0
2018-Jun-11 10:28N 66°18' E 014°07'0 0.0
2018-Jun-11 09:58N 66°18' E 014°07'0 0.0
2018-Jun-11 09:28N 66°18' E 014°07'0 0.0
2018-Jun-11 08:58N 66°18' E 014°07'0 0.0
2018-Jun-11 08:28N 66°18' E 014°07'0 0.0
2018-Jun-11 07:58N 66°18' E 014°07'0 0.0
2018-Jun-11 07:28N 66°18' E 014°07'0 0.0
2018-Jun-11 06:58N 66°18' E 014°07'0 0.0
2018-Jun-11 06:28N 66°18' E 014°07'0 0.0
2018-Jun-11 05:58N 66°18' E 014°07'0 0.0
2018-Jun-11 05:28N 66°18' E 014°07'0 0.0
2018-Jun-11 04:58N 66°18' E 014°07'0 0.0
2018-Jun-11 04:25N 66°18' E 014°07'0 0.0
2018-Jun-11 03:55N 66°18' E 014°07'0 0.0
2018-Jun-11 03:28N 66°18' E 014°07'0 0.0
2018-Jun-11 02:58N 66°18' E 014°07'0 0.0
2018-Jun-11 02:28N 66°18' E 014°07'0 0.0
2018-Jun-11 01:58N 66°18' E 014°07'0 0.0
2018-Jun-11 01:28N 66°18' E 014°07'0 0.0
2018-Jun-11 00:58N 66°18' E 014°07'0 0.0
2018-Jun-10 23:13N 66°18' E 014°07'0 0.0
2018-Jun-10 22:52N 66°18' E 014°07'0 0.0
2018-Jun-10 22:28N 66°18' E 014°07'0 0.0
2018-Jun-10 21:58N 66°18' E 014°07'0 0.0
2018-Jun-10 21:28N 66°18' E 014°07'0 0.0
2018-Jun-10 20:58N 66°18' E 014°07'0 0.0
2018-Jun-10 20:28N 66°18' E 014°07'0 0.0
2018-Jun-10 19:58N 66°18' E 014°07'0 0.0
2018-Jun-10 19:28N 66°18' E 014°07'0 0.0
2018-Jun-10 18:58N 66°18' E 014°07'0 0.0
2018-Jun-10 18:28N 66°18' E 014°07'0 0.0
2018-Jun-10 17:58N 66°18' E 014°07'0 0.0
2018-Jun-10 17:28N 66°18' E 014°07'0 0.0
2018-Jun-10 16:58N 66°18' E 014°07'0 0.0
2018-Jun-10 16:25N 66°18' E 014°07'0 0.0
2018-Jun-10 15:58N 66°18' E 014°07'0 0.0
2018-Jun-10 15:25N 66°18' E 014°07'0 0.0
2018-Jun-10 14:58N 66°18' E 014°07'0 0.0
2018-Jun-10 14:28N 66°18' E 014°07'0 0.0
2018-Jun-10 13:28N 66°18' E 014°07'0 0.0
2018-Jun-10 12:58N 66°18' E 014°07'0 0.0
2018-Jun-10 12:28N 66°18' E 014°07'0 0.0
2018-Jun-10 11:58N 66°18' E 014°07'0 0.0
2018-Jun-10 11:28N 66°18' E 014°07'0 0.0
2018-Jun-10 10:58N 66°18' E 014°07'0 0.0
2018-Jun-10 10:28N 66°18' E 014°07'0 0.0
2018-Jun-10 09:58N 66°18' E 014°07'0 0.0
2018-Jun-10 09:28N 66°18' E 014°07'0 0.0
2018-Jun-10 08:58N 66°18' E 014°07'0 0.0
2018-Jun-10 08:28N 66°18' E 014°07'0 0.0
2018-Jun-10 07:58N 66°18' E 014°07'0 0.0
2018-Jun-10 07:22N 66°18' E 014°07'0 0.0
2018-Jun-10 06:58N 66°18' E 014°07'0 0.0
2018-Jun-10 06:28N 66°18' E 014°07'0 0.0
2018-Jun-10 05:58N 66°18' E 014°07'0 0.0
2018-Jun-10 05:28N 66°18' E 014°07'0 0.0
2018-Jun-10 04:58N 66°18' E 014°07'0 0.0
2018-Jun-10 04:28N 66°18' E 014°07'0 0.0
2018-Jun-10 03:58N 66°18' E 014°07'0 0.0
2018-Jun-10 03:28N 66°18' E 014°07'0 0.0
2018-Jun-10 02:58N 66°18' E 014°07'0 0.0
2018-Jun-10 02:28N 66°18' E 014°07'0 0.0
2018-Jun-10 01:58N 66°18' E 014°07'0 0.0
2018-Jun-10 01:28N 66°18' E 014°07'0 0.0
2018-Jun-10 00:58N 66°18' E 014°07'0 0.0
2018-Jun-10 00:22N 66°18' E 014°07'0 0.0
2018-Jun-09 23:58N 66°18' E 014°07'0 0.0
2018-Jun-09 23:28N 66°18' E 014°07'0 0.0
2018-Jun-09 22:58N 66°18' E 014°07'0 0.0
2018-Jun-09 22:28N 66°18' E 014°07'0 0.0
2018-Jun-09 21:58N 66°18' E 014°07'0 0.0
2018-Jun-09 21:28N 66°18' E 014°07'0 0.0
2018-Jun-09 20:58N 66°18' E 014°07'0 0.0
2018-Jun-09 20:28N 66°18' E 014°07'0 0.0
2018-Jun-09 19:58N 66°18' E 014°07'0 0.0
2018-Jun-09 19:28N 66°18' E 014°07'0 0.0
2018-Jun-09 18:58N 66°18' E 014°07'0 0.0
2018-Jun-09 18:28N 66°18' E 014°07'0 0.0
2018-Jun-09 17:58N 66°18' E 014°07'0 0.0
2018-Jun-09 17:25N 66°18' E 014°07'0 0.0
2018-Jun-09 16:58N 66°18' E 014°07'0 0.0
2018-Jun-09 16:28N 66°18' E 014°07'0 0.0
2018-Jun-09 15:58N 66°18' E 014°07'0 0.0
2018-Jun-09 15:28N 66°18' E 014°07'2 1.9
2018-Jun-09 14:30N 66°18' E 014°03'611.4
2018-Jun-09 14:00N 66°15' E 013°50'611.9
2018-Jun-09 13:29N 66°14' E 013°35'611.5
2018-Jun-09 13:00N 66°14' E 013°21'611.9
2018-Jun-09 12:30N 66°11' E 013°09'611.8
2018-Jun-09 12:00N 66°09' E 012°54'611.3
2018-Jun-09 11:30N 66°12' E 012°43'5 9.5
2018-Jun-09 11:00N 66°15' E 012°34'4 7.7
2018-Jun-09 10:30N 66°15' E 012°24'510.9
2018-Jun-09 10:00N 66°17' E 012°12'611.9
2018-Jun-09 09:30N 66°15' E 011°57'  
2018-Jun-06 19:49N 59°24' W 004°18'  

Dump ship's entire track history